sensor_id;sensor_type;location;lat;lon;timestamp;P1;durP1;ratioP1;P2;durP2;ratioP2
24644;SDS011;12780;45.502;9.146;2022-07-04T00:00:03;6.03;;;2.42;;
24644;SDS011;12780;45.502;9.146;2022-07-04T00:02:30;7.47;;;2.70;;
24644;SDS011;12780;45.502;9.146;2022-07-04T00:04:56;6.40;;;2.67;;
24644;SDS011;12780;45.502;9.146;2022-07-04T00:07:22;7.63;;;2.38;;
24644;SDS011;12780;45.502;9.146;2022-07-04T00:09:48;13.45;;;2.70;;
24644;SDS011;12780;45.502;9.146;2022-07-04T00:12:14;9.63;;;2.83;;
24644;SDS011;12780;45.502;9.146;2022-07-04T00:14:39;8.43;;;2.75;;
24644;SDS011;12780;45.502;9.146;2022-07-04T00:17:05;9.93;;;2.67;;
24644;SDS011;12780;45.502;9.146;2022-07-04T00:19:31;8.27;;;2.92;;
24644;SDS011;12780;45.502;9.146;2022-07-04T00:21:57;4.85;;;2.83;;
24644;SDS011;12780;45.502;9.146;2022-07-04T00:24:22;14.02;;;3.15;;
24644;SDS011;12780;45.502;9.146;2022-07-04T00:26:48;15.25;;;3.35;;
24644;SDS011;12780;45.502;9.146;2022-07-04T00:29:13;9.25;;;3.00;;
24644;SDS011;12780;45.502;9.146;2022-07-04T00:31:40;7.70;;;2.53;;
24644;SDS011;12780;45.502;9.146;2022-07-04T00:34:05;15.23;;;2.72;;
24644;SDS011;12780;45.502;9.146;2022-07-04T00:36:31;7.15;;;2.80;;
24644;SDS011;12780;45.502;9.146;2022-07-04T00:38:57;5.10;;;2.65;;
24644;SDS011;12780;45.502;9.146;2022-07-04T00:41:23;5.88;;;2.55;;
24644;SDS011;12780;45.502;9.146;2022-07-04T00:44:08;4.18;;;2.17;;
24644;SDS011;12780;45.502;9.146;2022-07-04T00:46:35;8.02;;;2.50;;
24644;SDS011;12780;45.502;9.146;2022-07-04T00:49:02;10.95;;;2.50;;
24644;SDS011;12780;45.502;9.146;2022-07-04T00:51:29;3.78;;;2.20;;
24644;SDS011;12780;45.502;9.146;2022-07-04T00:53:55;4.55;;;2.22;;
24644;SDS011;12780;45.502;9.146;2022-07-04T00:56:21;13.23;;;2.20;;
24644;SDS011;12780;45.502;9.146;2022-07-04T00:58:48;3.88;;;2.10;;
24644;SDS011;12780;45.502;9.146;2022-07-04T01:01:15;4.68;;;2.50;;
24644;SDS011;12780;45.502;9.146;2022-07-04T01:03:41;5.03;;;2.50;;
24644;SDS011;12780;45.502;9.146;2022-07-04T01:06:07;3.50;;;2.10;;
24644;SDS011;12780;45.502;9.146;2022-07-04T01:08:37;5.57;;;2.75;;
24644;SDS011;12780;45.502;9.146;2022-07-04T01:11:05;4.68;;;2.38;;
24644;SDS011;12780;45.502;9.146;2022-07-04T01:13:30;4.53;;;2.22;;
24644;SDS011;12780;45.502;9.146;2022-07-04T01:15:56;6.75;;;2.30;;
24644;SDS011;12780;45.502;9.146;2022-07-04T01:18:22;4.35;;;2.50;;
24644;SDS011;12780;45.502;9.146;2022-07-04T01:20:48;6.25;;;2.20;;
24644;SDS011;12780;45.502;9.146;2022-07-04T01:23:13;4.80;;;2.60;;
24644;SDS011;12780;45.502;9.146;2022-07-04T01:25:39;5.63;;;2.33;;
24644;SDS011;12780;45.502;9.146;2022-07-04T01:28:04;6.70;;;2.15;;
24644;SDS011;12780;45.502;9.146;2022-07-04T01:30:32;3.70;;;2.20;;
24644;SDS011;12780;45.502;9.146;2022-07-04T01:32:58;7.13;;;2.42;;
24644;SDS011;12780;45.502;9.146;2022-07-04T01:35:23;5.47;;;2.08;;
24644;SDS011;12780;45.502;9.146;2022-07-04T01:37:49;5.18;;;2.10;;
24644;SDS011;12780;45.502;9.146;2022-07-04T01:40:15;3.88;;;1.98;;
24644;SDS011;12780;45.502;9.146;2022-07-04T01:42:41;5.22;;;2.30;;
24644;SDS011;12780;45.502;9.146;2022-07-04T01:45:08;5.25;;;2.38;;
24644;SDS011;12780;45.502;9.146;2022-07-04T01:47:34;2.70;;;2.03;;
24644;SDS011;12780;45.502;9.146;2022-07-04T01:50:02;4.40;;;2.10;;
24644;SDS011;12780;45.502;9.146;2022-07-04T01:52:29;6.90;;;2.10;;
24644;SDS011;12780;45.502;9.146;2022-07-04T01:54:54;7.65;;;2.10;;
24644;SDS011;12780;45.502;9.146;2022-07-04T01:57:20;3.42;;;2.00;;
24644;SDS011;12780;45.502;9.146;2022-07-04T01:59:45;4.47;;;2.60;;
24644;SDS011;12780;45.502;9.146;2022-07-04T02:02:30;4.82;;;2.00;;
24644;SDS011;12780;45.502;9.146;2022-07-04T02:04:55;5.97;;;1.98;;
24644;SDS011;12780;45.502;9.146;2022-07-04T02:07:21;2.40;;;1.80;;
24644;SDS011;12780;45.502;9.146;2022-07-04T02:09:47;5.60;;;1.90;;
24644;SDS011;12780;45.502;9.146;2022-07-04T02:12:13;4.20;;;1.95;;
24644;SDS011;12780;45.502;9.146;2022-07-04T02:14:57;3.67;;;2.00;;
24644;SDS011;12780;45.502;9.146;2022-07-04T02:17:23;3.88;;;2.03;;
24644;SDS011;12780;45.502;9.146;2022-07-04T02:19:49;5.47;;;2.30;;
24644;SDS011;12780;45.502;9.146;2022-07-04T02:22:15;7.22;;;2.28;;
24644;SDS011;12780;45.502;9.146;2022-07-04T02:24:40;2.83;;;1.95;;
24644;SDS011;12780;45.502;9.146;2022-07-04T02:27:06;2.92;;;2.00;;
24644;SDS011;12780;45.502;9.146;2022-07-04T02:29:33;3.38;;;1.88;;
24644;SDS011;12780;45.502;9.146;2022-07-04T02:31:59;2.42;;;1.73;;
24644;SDS011;12780;45.502;9.146;2022-07-04T02:34:25;3.83;;;2.10;;
24644;SDS011;12780;45.502;9.146;2022-07-04T02:36:51;4.68;;;1.92;;
24644;SDS011;12780;45.502;9.146;2022-07-04T02:39:17;3.67;;;2.20;;
24644;SDS011;12780;45.502;9.146;2022-07-04T02:41:43;5.13;;;2.05;;
24644;SDS011;12780;45.502;9.146;2022-07-04T02:44:09;6.82;;;2.38;;
24644;SDS011;12780;45.502;9.146;2022-07-04T02:46:35;5.90;;;2.30;;
24644;SDS011;12780;45.502;9.146;2022-07-04T02:49:01;4.00;;;2.10;;
24644;SDS011;12780;45.502;9.146;2022-07-04T02:51:27;3.30;;;1.83;;
24644;SDS011;12780;45.502;9.146;2022-07-04T02:53:53;5.18;;;1.90;;
24644;SDS011;12780;45.502;9.146;2022-07-04T02:56:19;5.63;;;2.00;;
24644;SDS011;12780;45.502;9.146;2022-07-04T02:58:44;6.20;;;1.92;;
24644;SDS011;12780;45.502;9.146;2022-07-04T03:01:10;5.50;;;2.30;;
24644;SDS011;12780;45.502;9.146;2022-07-04T03:03:37;6.60;;;2.05;;
24644;SDS011;12780;45.502;9.146;2022-07-04T03:06:04;5.40;;;1.98;;
24644;SDS011;12780;45.502;9.146;2022-07-04T03:08:31;2.83;;;1.77;;
24644;SDS011;12780;45.502;9.146;2022-07-04T03:10:57;5.25;;;2.00;;
24644;SDS011;12780;45.502;9.146;2022-07-04T03:13:22;7.05;;;2.40;;
24644;SDS011;12780;45.502;9.146;2022-07-04T03:15:49;3.45;;;2.03;;
24644;SDS011;12780;45.502;9.146;2022-07-04T03:18:15;3.50;;;1.90;;
24644;SDS011;12780;45.502;9.146;2022-07-04T03:20:40;4.95;;;1.95;;
24644;SDS011;12780;45.502;9.146;2022-07-04T03:23:06;10.85;;;2.30;;
24644;SDS011;12780;45.502;9.146;2022-07-04T03:25:32;7.72;;;1.77;;
24644;SDS011;12780;45.502;9.146;2022-07-04T03:27:59;6.18;;;2.20;;
24644;SDS011;12780;45.502;9.146;2022-07-04T03:30:24;11.32;;;2.42;;
24644;SDS011;12780;45.502;9.146;2022-07-04T03:32:51;3.42;;;2.10;;
24644;SDS011;12780;45.502;9.146;2022-07-04T03:35:17;7.70;;;2.50;;
24644;SDS011;12780;45.502;9.146;2022-07-04T03:37:43;5.22;;;1.85;;
24644;SDS011;12780;45.502;9.146;2022-07-04T03:40:08;4.47;;;2.13;;
24644;SDS011;12780;45.502;9.146;2022-07-04T03:42:34;6.03;;;2.30;;
24644;SDS011;12780;45.502;9.146;2022-07-04T03:45:00;5.28;;;2.17;;
24644;SDS011;12780;45.502;9.146;2022-07-04T03:47:26;4.82;;;1.90;;
24644;SDS011;12780;45.502;9.146;2022-07-04T03:49:51;5.22;;;2.00;;
24644;SDS011;12780;45.502;9.146;2022-07-04T03:52:17;7.15;;;2.00;;
24644;SDS011;12780;45.502;9.146;2022-07-04T03:54:43;2.13;;;1.60;;
24644;SDS011;12780;45.502;9.146;2022-07-04T03:57:08;3.35;;;2.03;;
24644;SDS011;12780;45.502;9.146;2022-07-04T03:59:34;4.25;;;1.90;;
24644;SDS011;12780;45.502;9.146;2022-07-04T04:01:59;3.95;;;2.00;;
24644;SDS011;12780;45.502;9.146;2022-07-04T04:04:25;5.03;;;1.95;;
24644;SDS011;12780;45.502;9.146;2022-07-04T04:07:09;4.78;;;1.95;;
24644;SDS011;12780;45.502;9.146;2022-07-04T04:09:35;8.40;;;1.95;;
24644;SDS011;12780;45.502;9.146;2022-07-04T04:12:01;2.70;;;1.90;;
24644;SDS011;12780;45.502;9.146;2022-07-04T04:14:26;3.92;;;1.95;;
24644;SDS011;12780;45.502;9.146;2022-07-04T04:16:52;3.42;;;1.70;;
24644;SDS011;12780;45.502;9.146;2022-07-04T04:19:18;4.88;;;1.88;;
24644;SDS011;12780;45.502;9.146;2022-07-04T04:21:45;9.40;;;3.15;;
24644;SDS011;12780;45.502;9.146;2022-07-04T04:24:10;4.88;;;2.13;;
24644;SDS011;12780;45.502;9.146;2022-07-04T04:26:36;5.15;;;2.08;;
24644;SDS011;12780;45.502;9.146;2022-07-04T04:29:02;2.97;;;1.98;;
24644;SDS011;12780;45.502;9.146;2022-07-04T04:31:28;4.57;;;1.90;;
24644;SDS011;12780;45.502;9.146;2022-07-04T04:33:53;2.60;;;1.70;;
24644;SDS011;12780;45.502;9.146;2022-07-04T04:36:19;4.97;;;1.98;;
24644;SDS011;12780;45.502;9.146;2022-07-04T04:38:45;8.82;;;2.00;;
24644;SDS011;12780;45.502;9.146;2022-07-04T04:41:10;4.53;;;2.20;;
24644;SDS011;12780;45.502;9.146;2022-07-04T04:43:36;4.93;;;2.10;;
24644;SDS011;12780;45.502;9.146;2022-07-04T04:46:02;10.48;;;2.20;;
24644;SDS011;12780;45.502;9.146;2022-07-04T04:48:27;11.23;;;2.20;;
24644;SDS011;12780;45.502;9.146;2022-07-04T04:50:53;6.88;;;2.15;;
24644;SDS011;12780;45.502;9.146;2022-07-04T04:53:18;4.28;;;2.03;;
24644;SDS011;12780;45.502;9.146;2022-07-04T04:55:47;8.68;;;2.05;;
24644;SDS011;12780;45.502;9.146;2022-07-04T04:58:13;7.18;;;1.95;;
24644;SDS011;12780;45.502;9.146;2022-07-04T05:00:38;4.72;;;2.30;;
24644;SDS011;12780;45.502;9.146;2022-07-04T05:03:04;2.90;;;1.88;;
24644;SDS011;12780;45.502;9.146;2022-07-04T05:05:30;5.22;;;1.95;;
24644;SDS011;12780;45.502;9.146;2022-07-04T05:07:55;4.00;;;2.20;;
24644;SDS011;12780;45.502;9.146;2022-07-04T05:10:21;6.05;;;2.35;;
24644;SDS011;12780;45.502;9.146;2022-07-04T05:12:46;5.90;;;1.83;;
24644;SDS011;12780;45.502;9.146;2022-07-04T05:15:12;4.28;;;1.80;;
24644;SDS011;12780;45.502;9.146;2022-07-04T05:17:38;3.50;;;1.83;;
24644;SDS011;12780;45.502;9.146;2022-07-04T05:20:04;8.80;;;2.15;;
24644;SDS011;12780;45.502;9.146;2022-07-04T05:22:30;8.65;;;2.08;;
24644;SDS011;12780;45.502;9.146;2022-07-04T05:24:55;8.07;;;2.40;;
24644;SDS011;12780;45.502;9.146;2022-07-04T05:27:21;5.10;;;2.20;;
24644;SDS011;12780;45.502;9.146;2022-07-04T05:29:47;4.28;;;2.00;;
24644;SDS011;12780;45.502;9.146;2022-07-04T05:32:12;8.90;;;2.35;;
24644;SDS011;12780;45.502;9.146;2022-07-04T05:34:38;5.13;;;2.17;;
24644;SDS011;12780;45.502;9.146;2022-07-04T05:37:04;3.90;;;2.15;;
24644;SDS011;12780;45.502;9.146;2022-07-04T05:39:29;7.78;;;2.30;;
24644;SDS011;12780;45.502;9.146;2022-07-04T05:41:55;9.63;;;2.10;;
24644;SDS011;12780;45.502;9.146;2022-07-04T05:44:21;7.10;;;2.05;;
24644;SDS011;12780;45.502;9.146;2022-07-04T05:46:46;5.00;;;2.15;;
24644;SDS011;12780;45.502;9.146;2022-07-04T05:49:12;8.40;;;2.00;;
24644;SDS011;12780;45.502;9.146;2022-07-04T05:51:38;8.07;;;2.13;;
24644;SDS011;12780;45.502;9.146;2022-07-04T05:54:03;4.45;;;1.98;;
24644;SDS011;12780;45.502;9.146;2022-07-04T05:56:29;6.78;;;2.20;;
24644;SDS011;12780;45.502;9.146;2022-07-04T05:58:55;10.07;;;2.28;;
24644;SDS011;12780;45.502;9.146;2022-07-04T06:01:21;8.40;;;2.22;;
24644;SDS011;12780;45.502;9.146;2022-07-04T06:03:47;6.75;;;2.38;;
24644;SDS011;12780;45.502;9.146;2022-07-04T06:06:13;9.43;;;2.20;;
24644;SDS011;12780;45.502;9.146;2022-07-04T06:08:39;4.07;;;1.90;;
24644;SDS011;12780;45.502;9.146;2022-07-04T06:11:04;5.47;;;2.13;;
24644;SDS011;12780;45.502;9.146;2022-07-04T06:13:30;13.43;;;2.03;;
24644;SDS011;12780;45.502;9.146;2022-07-04T06:15:56;8.77;;;2.10;;
24644;SDS011;12780;45.502;9.146;2022-07-04T06:18:21;5.57;;;2.03;;
24644;SDS011;12780;45.502;9.146;2022-07-04T06:20:47;4.10;;;2.10;;
24644;SDS011;12780;45.502;9.146;2022-07-04T06:23:12;6.05;;;2.30;;
24644;SDS011;12780;45.502;9.146;2022-07-04T06:25:38;9.25;;;2.35;;
24644;SDS011;12780;45.502;9.146;2022-07-04T06:28:04;10.90;;;2.50;;
24644;SDS011;12780;45.502;9.146;2022-07-04T06:30:30;13.82;;;2.80;;
24644;SDS011;12780;45.502;9.146;2022-07-04T06:32:57;7.30;;;2.50;;
24644;SDS011;12780;45.502;9.146;2022-07-04T06:35:26;10.45;;;2.83;;
24644;SDS011;12780;45.502;9.146;2022-07-04T06:38:13;10.88;;;2.78;;
24644;SDS011;12780;45.502;9.146;2022-07-04T06:40:41;10.52;;;3.05;;
24644;SDS011;12780;45.502;9.146;2022-07-04T06:43:07;13.88;;;3.05;;
24644;SDS011;12780;45.502;9.146;2022-07-04T06:45:33;11.43;;;2.90;;
24644;SDS011;12780;45.502;9.146;2022-07-04T06:48:00;10.40;;;3.00;;
24644;SDS011;12780;45.502;9.146;2022-07-04T06:50:26;6.80;;;2.67;;
24644;SDS011;12780;45.502;9.146;2022-07-04T06:52:52;7.55;;;3.15;;
24644;SDS011;12780;45.502;9.146;2022-07-04T06:55:18;9.70;;;3.20;;
24644;SDS011;12780;45.502;9.146;2022-07-04T06:57:43;14.40;;;3.67;;
24644;SDS011;12780;45.502;9.146;2022-07-04T07:00:09;7.05;;;3.15;;
24644;SDS011;12780;45.502;9.146;2022-07-04T07:02:36;6.93;;;2.97;;
24644;SDS011;12780;45.502;9.146;2022-07-04T07:05:02;9.70;;;2.88;;
24644;SDS011;12780;45.502;9.146;2022-07-04T07:07:29;15.02;;;3.00;;
24644;SDS011;12780;45.502;9.146;2022-07-04T07:09:54;11.63;;;2.95;;
24644;SDS011;12780;45.502;9.146;2022-07-04T07:12:20;6.85;;;2.90;;
24644;SDS011;12780;45.502;9.146;2022-07-04T07:14:47;5.82;;;2.58;;
24644;SDS011;12780;45.502;9.146;2022-07-04T07:17:13;14.20;;;2.85;;
24644;SDS011;12780;45.502;9.146;2022-07-04T07:19:40;6.80;;;3.00;;
24644;SDS011;12780;45.502;9.146;2022-07-04T07:22:07;7.22;;;2.45;;
24644;SDS011;12780;45.502;9.146;2022-07-04T07:24:34;7.03;;;2.65;;
24644;SDS011;12780;45.502;9.146;2022-07-04T07:27:00;11.00;;;3.03;;
24644;SDS011;12780;45.502;9.146;2022-07-04T07:29:26;6.90;;;2.75;;
24644;SDS011;12780;45.502;9.146;2022-07-04T07:31:51;8.70;;;2.80;;
24644;SDS011;12780;45.502;9.146;2022-07-04T07:34:17;6.13;;;2.70;;
24644;SDS011;12780;45.502;9.146;2022-07-04T07:36:43;13.10;;;2.97;;
24644;SDS011;12780;45.502;9.146;2022-07-04T07:39:08;8.77;;;3.00;;
24644;SDS011;12780;45.502;9.146;2022-07-04T07:41:34;7.50;;;3.25;;
24644;SDS011;12780;45.502;9.146;2022-07-04T07:44:00;11.15;;;3.97;;
24644;SDS011;12780;45.502;9.146;2022-07-04T07:46:26;11.13;;;3.45;;
24644;SDS011;12780;45.502;9.146;2022-07-04T07:48:52;8.60;;;3.20;;
24644;SDS011;12780;45.502;9.146;2022-07-04T07:51:17;10.90;;;3.22;;
24644;SDS011;12780;45.502;9.146;2022-07-04T07:53:43;4.75;;;2.65;;
24644;SDS011;12780;45.502;9.146;2022-07-04T07:56:09;10.48;;;3.33;;
24644;SDS011;12780;45.502;9.146;2022-07-04T07:58:34;10.05;;;3.40;;
24644;SDS011;12780;45.502;9.146;2022-07-04T08:01:00;12.95;;;3.45;;
24644;SDS011;12780;45.502;9.146;2022-07-04T08:03:28;5.68;;;3.15;;
24644;SDS011;12780;45.502;9.146;2022-07-04T08:06:13;8.63;;;3.05;;
24644;SDS011;12780;45.502;9.146;2022-07-04T08:08:40;5.63;;;3.08;;
24644;SDS011;12780;45.502;9.146;2022-07-04T08:11:06;7.55;;;3.00;;
24644;SDS011;12780;45.502;9.146;2022-07-04T08:13:33;11.43;;;3.35;;
24644;SDS011;12780;45.502;9.146;2022-07-04T08:15:59;7.70;;;3.22;;
24644;SDS011;12780;45.502;9.146;2022-07-04T08:18:24;10.18;;;3.05;;
24644;SDS011;12780;45.502;9.146;2022-07-04T08:20:50;11.73;;;3.45;;
24644;SDS011;12780;45.502;9.146;2022-07-04T08:23:16;9.45;;;3.25;;
24644;SDS011;12780;45.502;9.146;2022-07-04T08:25:42;12.18;;;3.10;;
24644;SDS011;12780;45.502;9.146;2022-07-04T08:28:08;7.85;;;3.30;;
24644;SDS011;12780;45.502;9.146;2022-07-04T08:30:34;8.23;;;2.80;;
24644;SDS011;12780;45.502;9.146;2022-07-04T08:33:00;14.32;;;3.08;;
24644;SDS011;12780;45.502;9.146;2022-07-04T08:35:26;7.85;;;2.60;;
24644;SDS011;12780;45.502;9.146;2022-07-04T08:37:52;6.88;;;2.88;;
24644;SDS011;12780;45.502;9.146;2022-07-04T08:40:27;5.38;;;3.08;;
24644;SDS011;12780;45.502;9.146;2022-07-04T08:42:53;8.23;;;3.05;;
24644;SDS011;12780;45.502;9.146;2022-07-04T08:45:27;9.30;;;3.20;;
24644;SDS011;12780;45.502;9.146;2022-07-04T08:48:07;6.90;;;3.22;;
24644;SDS011;12780;45.502;9.146;2022-07-04T08:50:34;12.88;;;2.90;;
24644;SDS011;12780;45.502;9.146;2022-07-04T08:53:12;7.78;;;2.97;;
24644;SDS011;12780;45.502;9.146;2022-07-04T08:55:40;5.93;;;2.67;;
24644;SDS011;12780;45.502;9.146;2022-07-04T08:58:25;9.45;;;3.10;;
24644;SDS011;12780;45.502;9.146;2022-07-04T09:00:52;6.97;;;2.30;;
24644;SDS011;12780;45.502;9.146;2022-07-04T09:03:18;6.07;;;3.00;;
24644;SDS011;12780;45.502;9.146;2022-07-04T09:05:45;6.63;;;2.80;;
24644;SDS011;12780;45.502;9.146;2022-07-04T09:08:12;7.00;;;2.30;;
24644;SDS011;12780;45.502;9.146;2022-07-04T09:10:38;11.07;;;2.75;;
24644;SDS011;12780;45.502;9.146;2022-07-04T09:13:06;6.22;;;2.47;;
24644;SDS011;12780;45.502;9.146;2022-07-04T09:15:33;10.82;;;2.60;;
24644;SDS011;12780;45.502;9.146;2022-07-04T09:17:59;5.35;;;2.15;;
24644;SDS011;12780;45.502;9.146;2022-07-04T09:20:26;9.10;;;2.38;;
24644;SDS011;12780;45.502;9.146;2022-07-04T09:22:53;7.10;;;1.83;;
24644;SDS011;12780;45.502;9.146;2022-07-04T09:25:19;4.35;;;2.20;;
24644;SDS011;12780;45.502;9.146;2022-07-04T09:27:50;9.07;;;1.80;;
24644;SDS011;12780;45.502;9.146;2022-07-04T09:30:21;5.55;;;1.95;;
24644;SDS011;12780;45.502;9.146;2022-07-04T09:32:51;3.22;;;1.63;;
24644;SDS011;12780;45.502;9.146;2022-07-04T09:35:30;3.90;;;1.90;;
24644;SDS011;12780;45.502;9.146;2022-07-04T09:37:59;10.30;;;1.88;;
24644;SDS011;12780;45.502;9.146;2022-07-04T09:40:29;7.57;;;1.98;;
24644;SDS011;12780;45.502;9.146;2022-07-04T09:42:57;8.98;;;2.22;;
24644;SDS011;12780;45.502;9.146;2022-07-04T09:45:24;6.18;;;2.40;;
24644;SDS011;12780;45.502;9.146;2022-07-04T09:47:53;8.20;;;2.38;;
24644;SDS011;12780;45.502;9.146;2022-07-04T09:50:23;4.80;;;2.20;;
24644;SDS011;12780;45.502;9.146;2022-07-04T09:58:06;7.05;;;2.35;;
24644;SDS011;12780;45.502;9.146;2022-07-04T10:03:20;5.20;;;2.20;;
24644;SDS011;12780;45.502;9.146;2022-07-04T10:06:04;6.05;;;2.08;;
24644;SDS011;12780;45.502;9.146;2022-07-04T10:08:38;4.15;;;1.90;;
24644;SDS011;12780;45.502;9.146;2022-07-04T10:11:05;3.88;;;1.92;;
24644;SDS011;12780;45.502;9.146;2022-07-04T10:13:32;5.25;;;1.80;;
24644;SDS011;12780;45.502;9.146;2022-07-04T10:15:57;6.38;;;2.00;;
24644;SDS011;12780;45.502;9.146;2022-07-04T10:18:24;9.38;;;1.92;;
24644;SDS011;12780;45.502;9.146;2022-07-04T10:20:50;8.45;;;1.98;;
24644;SDS011;12780;45.502;9.146;2022-07-04T10:23:18;6.57;;;2.30;;
24644;SDS011;12780;45.502;9.146;2022-07-04T10:25:51;5.72;;;2.20;;
24644;SDS011;12780;45.502;9.146;2022-07-04T10:28:19;8.80;;;2.10;;
24644;SDS011;12780;45.502;9.146;2022-07-04T10:30:55;5.03;;;2.50;;
24644;SDS011;12780;45.502;9.146;2022-07-04T10:33:26;7.70;;;2.40;;
24644;SDS011;12780;45.502;9.146;2022-07-04T10:35:57;5.50;;;2.40;;
24644;SDS011;12780;45.502;9.146;2022-07-04T10:38:28;18.70;;;2.60;;
24644;SDS011;12780;45.502;9.146;2022-07-04T10:45:58;4.80;;;2.30;;
24644;SDS011;12780;45.502;9.146;2022-07-04T10:48:54;8.05;;;2.47;;
24644;SDS011;12780;45.502;9.146;2022-07-04T10:56:57;7.40;;;2.80;;
24644;SDS011;12780;45.502;9.146;2022-07-04T10:59:34;6.32;;;2.92;;
24644;SDS011;12780;45.502;9.146;2022-07-04T11:17:56;9.10;;;3.20;;
24644;SDS011;12780;45.502;9.146;2022-07-04T11:20:26;7.40;;;2.85;;
24644;SDS011;12780;45.502;9.146;2022-07-04T11:23:04;7.72;;;3.05;;
24644;SDS011;12780;45.502;9.146;2022-07-04T11:25:31;7.13;;;3.28;;
24644;SDS011;12780;45.502;9.146;2022-07-04T11:27:57;4.40;;;2.53;;
24644;SDS011;12780;45.502;9.146;2022-07-04T11:30:23;7.88;;;2.70;;
24644;SDS011;12780;45.502;9.146;2022-07-04T11:32:48;10.10;;;2.80;;
24644;SDS011;12780;45.502;9.146;2022-07-04T11:35:19;7.35;;;3.25;;
24644;SDS011;12780;45.502;9.146;2022-07-04T11:37:46;8.27;;;3.30;;
24644;SDS011;12780;45.502;9.146;2022-07-04T11:40:21;7.78;;;3.00;;
24644;SDS011;12780;45.502;9.146;2022-07-04T11:43:07;5.60;;;2.88;;
24644;SDS011;12780;45.502;9.146;2022-07-04T11:45:51;4.78;;;2.85;;
24644;SDS011;12780;45.502;9.146;2022-07-04T11:48:36;5.00;;;2.70;;
24644;SDS011;12780;45.502;9.146;2022-07-04T11:51:01;5.93;;;2.67;;
24644;SDS011;12780;45.502;9.146;2022-07-04T11:53:27;7.15;;;3.00;;
24644;SDS011;12780;45.502;9.146;2022-07-04T11:55:53;6.05;;;2.80;;
24644;SDS011;12780;45.502;9.146;2022-07-04T11:58:21;6.38;;;3.05;;
24644;SDS011;12780;45.502;9.146;2022-07-04T12:00:47;6.90;;;2.90;;
24644;SDS011;12780;45.502;9.146;2022-07-04T12:03:12;8.05;;;2.88;;
24644;SDS011;12780;45.502;9.146;2022-07-04T12:05:38;7.93;;;3.25;;
24644;SDS011;12780;45.502;9.146;2022-07-04T12:08:04;9.95;;;3.40;;
24644;SDS011;12780;45.502;9.146;2022-07-04T12:10:32;6.72;;;3.70;;
24644;SDS011;12780;45.502;9.146;2022-07-04T12:13:10;6.13;;;3.13;;
24644;SDS011;12780;45.502;9.146;2022-07-04T12:15:43;8.68;;;3.03;;
24644;SDS011;12780;45.502;9.146;2022-07-04T12:18:20;5.95;;;3.47;;
24644;SDS011;12780;45.502;9.146;2022-07-04T12:20:48;8.38;;;3.45;;
24644;SDS011;12780;45.502;9.146;2022-07-04T12:23:14;8.23;;;3.80;;
24644;SDS011;12780;45.502;9.146;2022-07-04T12:25:43;6.90;;;3.53;;
24644;SDS011;12780;45.502;9.146;2022-07-04T12:28:11;8.80;;;3.10;;
24644;SDS011;12780;45.502;9.146;2022-07-04T12:33:21;7.45;;;3.65;;
24644;SDS011;12780;45.502;9.146;2022-07-04T12:43:17;7.75;;;3.65;;
24644;SDS011;12780;45.502;9.146;2022-07-04T12:45:47;10.32;;;3.35;;
24644;SDS011;12780;45.502;9.146;2022-07-04T12:48:28;8.00;;;3.40;;
24644;SDS011;12780;45.502;9.146;2022-07-04T12:50:55;7.60;;;3.30;;
24644;SDS011;12780;45.502;9.146;2022-07-04T12:53:37;8.65;;;3.63;;
24644;SDS011;12780;45.502;9.146;2022-07-04T12:56:05;13.85;;;3.30;;
24644;SDS011;12780;45.502;9.146;2022-07-04T12:58:31;13.38;;;4.05;;
24644;SDS011;12780;45.502;9.146;2022-07-04T13:00:57;7.30;;;3.17;;
24644;SDS011;12780;45.502;9.146;2022-07-04T13:03:22;8.05;;;3.83;;
24644;SDS011;12780;45.502;9.146;2022-07-04T13:05:48;5.60;;;3.33;;
24644;SDS011;12780;45.502;9.146;2022-07-04T13:08:14;13.00;;;3.85;;
24644;SDS011;12780;45.502;9.146;2022-07-04T13:10:40;7.60;;;3.75;;
24644;SDS011;12780;45.502;9.146;2022-07-04T13:13:06;6.50;;;3.58;;
24644;SDS011;12780;45.502;9.146;2022-07-04T13:15:32;10.13;;;3.60;;
24644;SDS011;12780;45.502;9.146;2022-07-04T13:17:58;6.70;;;3.47;;
24644;SDS011;12780;45.502;9.146;2022-07-04T13:20:24;13.52;;;4.00;;
24644;SDS011;12780;45.502;9.146;2022-07-04T13:22:50;10.10;;;3.60;;
24644;SDS011;12780;45.502;9.146;2022-07-04T13:25:16;14.52;;;3.47;;
24644;SDS011;12780;45.502;9.146;2022-07-04T13:27:42;10.07;;;3.80;;
24644;SDS011;12780;45.502;9.146;2022-07-04T13:30:07;7.93;;;3.63;;
24644;SDS011;12780;45.502;9.146;2022-07-04T13:32:34;8.80;;;3.60;;
24644;SDS011;12780;45.502;9.146;2022-07-04T13:35:01;9.07;;;3.90;;
24644;SDS011;12780;45.502;9.146;2022-07-04T13:37:27;9.18;;;3.92;;
24644;SDS011;12780;45.502;9.146;2022-07-04T13:39:53;6.43;;;3.60;;
24644;SDS011;12780;45.502;9.146;2022-07-04T13:42:20;7.05;;;3.50;;
24644;SDS011;12780;45.502;9.146;2022-07-04T13:45:04;8.15;;;3.97;;
24644;SDS011;12780;45.502;9.146;2022-07-04T13:47:30;9.85;;;3.75;;
24644;SDS011;12780;45.502;9.146;2022-07-04T13:49:56;7.75;;;3.72;;
24644;SDS011;12780;45.502;9.146;2022-07-04T13:52:22;8.18;;;3.70;;
24644;SDS011;12780;45.502;9.146;2022-07-04T13:54:48;7.13;;;3.85;;
24644;SDS011;12780;45.502;9.146;2022-07-04T13:57:13;6.07;;;3.72;;
24644;SDS011;12780;45.502;9.146;2022-07-04T13:59:40;6.45;;;4.00;;
24644;SDS011;12780;45.502;9.146;2022-07-04T14:02:06;17.65;;;4.18;;
24644;SDS011;12780;45.502;9.146;2022-07-04T14:04:31;7.88;;;3.78;;
24644;SDS011;12780;45.502;9.146;2022-07-04T14:06:57;17.27;;;3.78;;
24644;SDS011;12780;45.502;9.146;2022-07-04T14:09:23;11.30;;;4.32;;
24644;SDS011;12780;45.502;9.146;2022-07-04T14:11:49;5.90;;;3.53;;
24644;SDS011;12780;45.502;9.146;2022-07-04T14:14:14;17.85;;;2.72;;
24644;SDS011;12780;45.502;9.146;2022-07-04T14:16:40;22.92;;;2.75;;
24644;SDS011;12780;45.502;9.146;2022-07-04T14:19:06;20.67;;;2.78;;
24644;SDS011;12780;45.502;9.146;2022-07-04T14:21:31;20.85;;;2.20;;
24644;SDS011;12780;45.502;9.146;2022-07-04T14:23:57;9.15;;;2.15;;
24644;SDS011;12780;45.502;9.146;2022-07-04T14:26:23;10.73;;;2.40;;
24644;SDS011;12780;45.502;9.146;2022-07-04T14:28:49;7.32;;;2.17;;
24644;SDS011;12780;45.502;9.146;2022-07-04T14:31:16;9.48;;;2.50;;
24644;SDS011;12780;45.502;9.146;2022-07-04T14:33:42;6.10;;;2.30;;
24644;SDS011;12780;45.502;9.146;2022-07-04T14:36:08;3.47;;;2.03;;
24644;SDS011;12780;45.502;9.146;2022-07-04T14:38:35;6.35;;;2.33;;
24644;SDS011;12780;45.502;9.146;2022-07-04T14:41:02;8.75;;;2.13;;
24644;SDS011;12780;45.502;9.146;2022-07-04T14:43:40;13.32;;;2.35;;
24644;SDS011;12780;45.502;9.146;2022-07-04T14:46:07;7.30;;;2.10;;
24644;SDS011;12780;45.502;9.146;2022-07-04T14:48:33;3.55;;;2.33;;
24644;SDS011;12780;45.502;9.146;2022-07-04T14:50:59;4.88;;;2.00;;
24644;SDS011;12780;45.502;9.146;2022-07-04T14:53:25;8.27;;;2.40;;
24644;SDS011;12780;45.502;9.146;2022-07-04T14:55:51;11.48;;;2.28;;
24644;SDS011;12780;45.502;9.146;2022-07-04T14:58:17;5.90;;;2.67;;
24644;SDS011;12780;45.502;9.146;2022-07-04T15:00:43;6.60;;;1.90;;
24644;SDS011;12780;45.502;9.146;2022-07-04T15:03:09;8.07;;;2.28;;
24644;SDS011;12780;45.502;9.146;2022-07-04T15:05:35;4.50;;;2.25;;
24644;SDS011;12780;45.502;9.146;2022-07-04T15:08:01;5.13;;;2.08;;
24644;SDS011;12780;45.502;9.146;2022-07-04T15:10:27;5.93;;;1.90;;
24644;SDS011;12780;45.502;9.146;2022-07-04T15:12:53;2.72;;;1.92;;
24644;SDS011;12780;45.502;9.146;2022-07-04T15:15:19;7.15;;;2.13;;
24644;SDS011;12780;45.502;9.146;2022-07-04T15:17:45;6.20;;;2.10;;
24644;SDS011;12780;45.502;9.146;2022-07-04T15:20:12;11.48;;;2.50;;
24644;SDS011;12780;45.502;9.146;2022-07-04T15:22:57;4.82;;;2.50;;
24644;SDS011;12780;45.502;9.146;2022-07-04T15:25:41;10.20;;;3.30;;
24644;SDS011;12780;45.502;9.146;2022-07-04T15:28:07;7.00;;;2.85;;
24644;SDS011;12780;45.502;9.146;2022-07-04T15:30:33;5.03;;;2.90;;